sensor_id;sensor_type;location;lat;lon;timestamp;P1;durP1;ratioP1;P2;durP2;ratioP2
27899;SDS011;15243;50.726;7.080;2022-09-27T00:01:51;8.10;;;3.63;;
27899;SDS011;15243;50.726;7.080;2022-09-27T00:04:18;7.28;;;3.97;;
27899;SDS011;15243;50.726;7.080;2022-09-27T00:06:45;8.80;;;3.67;;
27899;SDS011;15243;50.726;7.080;2022-09-27T00:09:12;7.43;;;3.58;;
27899;SDS011;15243;50.726;7.080;2022-09-27T00:11:39;7.07;;;3.13;;
27899;SDS011;15243;50.726;7.080;2022-09-27T00:14:10;6.35;;;2.80;;
27899;SDS011;15243;50.726;7.080;2022-09-27T00:16:39;10.15;;;2.40;;
27899;SDS011;15243;50.726;7.080;2022-09-27T00:19:07;6.32;;;2.70;;
27899;SDS011;15243;50.726;7.080;2022-09-27T00:21:41;6.20;;;2.45;;
27899;SDS011;15243;50.726;7.080;2022-09-27T00:24:12;5.40;;;2.20;;
27899;SDS011;15243;50.726;7.080;2022-09-27T00:26:41;3.43;;;2.00;;
27899;SDS011;15243;50.726;7.080;2022-09-27T00:29:08;4.22;;;2.15;;
27899;SDS011;15243;50.726;7.080;2022-09-27T00:31:36;6.40;;;1.92;;
27899;SDS011;15243;50.726;7.080;2022-09-27T00:34:03;4.80;;;1.70;;
27899;SDS011;15243;50.726;7.080;2022-09-27T00:36:32;6.75;;;1.88;;
27899;SDS011;15243;50.726;7.080;2022-09-27T00:39:00;5.82;;;2.03;;
27899;SDS011;15243;50.726;7.080;2022-09-27T00:41:28;8.00;;;2.53;;
27899;SDS011;15243;50.726;7.080;2022-09-27T00:44:01;7.30;;;2.17;;
27899;SDS011;15243;50.726;7.080;2022-09-27T00:49:41;5.95;;;2.42;;
27899;SDS011;15243;50.726;7.080;2022-09-27T00:51:52;6.38;;;2.40;;
27899;SDS011;15243;50.726;7.080;2022-09-27T00:54:24;7.88;;;3.10;;
27899;SDS011;15243;50.726;7.080;2022-09-27T00:56:53;7.18;;;2.70;;
27899;SDS011;15243;50.726;7.080;2022-09-27T00:59:25;7.35;;;2.70;;
27899;SDS011;15243;50.726;7.080;2022-09-27T01:01:55;6.72;;;3.13;;
27899;SDS011;15243;50.726;7.080;2022-09-27T01:04:23;7.85;;;3.22;;
27899;SDS011;15243;50.726;7.080;2022-09-27T01:06:53;8.43;;;2.95;;
27899;SDS011;15243;50.726;7.080;2022-09-27T01:09:20;7.88;;;3.35;;
27899;SDS011;15243;50.726;7.080;2022-09-27T01:41:44;4.30;;;1.70;;
27899;SDS011;15243;50.726;7.080;2022-09-27T01:44:39;4.40;;;1.80;;
27899;SDS011;15243;50.726;7.080;2022-09-27T01:47:14;4.65;;;1.75;;
27899;SDS011;15243;50.726;7.080;2022-09-27T01:49:46;5.05;;;1.60;;
27899;SDS011;15243;50.726;7.080;2022-09-27T01:54:46;6.43;;;1.70;;
27899;SDS011;15243;50.726;7.080;2022-09-27T01:57:25;4.32;;;1.48;;
27899;SDS011;15243;50.726;7.080;2022-09-27T02:00:07;5.32;;;1.70;;
27899;SDS011;15243;50.726;7.080;2022-09-27T02:02:58;4.25;;;1.40;;
27899;SDS011;15243;50.726;7.080;2022-09-27T02:05:28;4.32;;;1.95;;
27899;SDS011;15243;50.726;7.080;2022-09-27T02:07:59;7.88;;;1.38;;
27899;SDS011;15243;50.726;7.080;2022-09-27T02:10:33;6.60;;;2.03;;
27899;SDS011;15243;50.726;7.080;2022-09-27T02:13:06;4.13;;;1.48;;
27899;SDS011;15243;50.726;7.080;2022-09-27T02:21:18;3.97;;;1.48;;
27899;SDS011;15243;50.726;7.080;2022-09-27T02:23:53;6.30;;;1.52;;
27899;SDS011;15243;50.726;7.080;2022-09-27T02:26:34;3.50;;;1.38;;
27899;SDS011;15243;50.726;7.080;2022-09-27T02:29:11;4.43;;;1.65;;
27899;SDS011;15243;50.726;7.080;2022-09-27T02:31:45;3.15;;;1.65;;
27899;SDS011;15243;50.726;7.080;2022-09-27T02:34:17;9.07;;;2.00;;
27899;SDS011;15243;50.726;7.080;2022-09-27T02:36:47;6.03;;;1.83;;
27899;SDS011;15243;50.726;7.080;2022-09-27T02:39:15;6.38;;;1.88;;
27899;SDS011;15243;50.726;7.080;2022-09-27T02:41:43;6.30;;;1.70;;
27899;SDS011;15243;50.726;7.080;2022-09-27T02:44:10;5.18;;;1.80;;
27899;SDS011;15243;50.726;7.080;2022-09-27T02:46:47;5.20;;;2.28;;
27899;SDS011;15243;50.726;7.080;2022-09-27T02:49:48;2.75;;;1.92;;
27899;SDS011;15243;50.726;7.080;2022-09-27T02:55:17;8.82;;;2.10;;
27899;SDS011;15243;50.726;7.080;2022-09-27T02:58:00;4.55;;;1.90;;
27899;SDS011;15243;50.726;7.080;2022-09-27T03:04:07;3.20;;;1.88;;
27899;SDS011;15243;50.726;7.080;2022-09-27T03:06:41;11.07;;;2.25;;
27899;SDS011;15243;50.726;7.080;2022-09-27T03:09:17;4.15;;;1.55;;
27899;SDS011;15243;50.726;7.080;2022-09-27T03:11:49;3.72;;;1.65;;
27899;SDS011;15243;50.726;7.080;2022-09-27T03:14:16;4.93;;;1.50;;
27899;SDS011;15243;50.726;7.080;2022-09-27T03:16:43;3.50;;;1.75;;
27899;SDS011;15243;50.726;7.080;2022-09-27T03:19:10;6.18;;;1.70;;
27899;SDS011;15243;50.726;7.080;2022-09-27T03:21:37;3.05;;;1.50;;
27899;SDS011;15243;50.726;7.080;2022-09-27T03:24:04;2.83;;;1.20;;
27899;SDS011;15243;50.726;7.080;2022-09-27T03:26:31;5.18;;;1.80;;
27899;SDS011;15243;50.726;7.080;2022-09-27T03:28:58;2.72;;;1.13;;
27899;SDS011;15243;50.726;7.080;2022-09-27T03:31:25;2.33;;;1.10;;
27899;SDS011;15243;50.726;7.080;2022-09-27T03:33:52;3.95;;;0.93;;
27899;SDS011;15243;50.726;7.080;2022-09-27T03:36:18;3.92;;;1.02;;
27899;SDS011;15243;50.726;7.080;2022-09-27T03:38:45;2.42;;;0.70;;
27899;SDS011;15243;50.726;7.080;2022-09-27T03:41:12;2.63;;;0.80;;
27899;SDS011;15243;50.726;7.080;2022-09-27T03:43:39;2.22;;;0.73;;
27899;SDS011;15243;50.726;7.080;2022-09-27T03:46:06;2.40;;;0.85;;
27899;SDS011;15243;50.726;7.080;2022-09-27T03:48:33;1.85;;;1.00;;
27899;SDS011;15243;50.726;7.080;2022-09-27T03:51:00;3.45;;;0.80;;
27899;SDS011;15243;50.726;7.080;2022-09-27T03:53:26;2.30;;;0.90;;
27899;SDS011;15243;50.726;7.080;2022-09-27T03:55:53;4.32;;;0.90;;
27899;SDS011;15243;50.726;7.080;2022-09-27T03:58:20;2.45;;;0.80;;
27899;SDS011;15243;50.726;7.080;2022-09-27T04:00:47;3.05;;;0.90;;
27899;SDS011;15243;50.726;7.080;2022-09-27T04:03:14;2.35;;;0.73;;
27899;SDS011;15243;50.726;7.080;2022-09-27T04:05:42;5.35;;;0.90;;
27899;SDS011;15243;50.726;7.080;2022-09-27T04:08:09;1.92;;;0.93;;
27899;SDS011;15243;50.726;7.080;2022-09-27T04:10:37;2.22;;;0.75;;
27899;SDS011;15243;50.726;7.080;2022-09-27T04:13:04;5.88;;;1.27;;
27899;SDS011;15243;50.726;7.080;2022-09-27T04:15:31;4.03;;;1.00;;
27899;SDS011;15243;50.726;7.080;2022-09-27T04:17:58;4.15;;;1.20;;
27899;SDS011;15243;50.726;7.080;2022-09-27T04:20:25;3.67;;;1.02;;
27899;SDS011;15243;50.726;7.080;2022-09-27T04:22:51;4.15;;;1.20;;
27899;SDS011;15243;50.726;7.080;2022-09-27T04:25:18;3.35;;;0.98;;
27899;SDS011;15243;50.726;7.080;2022-09-27T04:27:45;2.45;;;0.82;;
27899;SDS011;15243;50.726;7.080;2022-09-27T04:30:14;3.63;;;1.02;;
27899;SDS011;15243;50.726;7.080;2022-09-27T04:32:41;6.32;;;1.10;;
27899;SDS011;15243;50.726;7.080;2022-09-27T04:35:12;3.25;;;0.93;;
27899;SDS011;15243;50.726;7.080;2022-09-27T04:37:58;2.95;;;1.00;;
27899;SDS011;15243;50.726;7.080;2022-09-27T04:40:25;4.97;;;1.20;;
27899;SDS011;15243;50.726;7.080;2022-09-27T04:42:52;2.38;;;0.90;;
27899;SDS011;15243;50.726;7.080;2022-09-27T04:45:20;5.55;;;1.10;;
27899;SDS011;15243;50.726;7.080;2022-09-27T04:47:48;2.30;;;1.02;;
27899;SDS011;15243;50.726;7.080;2022-09-27T04:50:16;4.22;;;0.90;;
27899;SDS011;15243;50.726;7.080;2022-09-27T04:52:43;3.60;;;1.02;;
27899;SDS011;15243;50.726;7.080;2022-09-27T04:55:14;2.95;;;1.00;;
27899;SDS011;15243;50.726;7.080;2022-09-27T04:57:41;4.55;;;1.23;;
27899;SDS011;15243;50.726;7.080;2022-09-27T05:00:08;4.57;;;1.13;;
27899;SDS011;15243;50.726;7.080;2022-09-27T05:02:35;2.35;;;1.10;;
27899;SDS011;15243;50.726;7.080;2022-09-27T05:05:02;3.88;;;1.38;;
27899;SDS011;15243;50.726;7.080;2022-09-27T05:07:29;2.55;;;1.10;;
27899;SDS011;15243;50.726;7.080;2022-09-27T05:09:58;7.03;;;1.50;;
27899;SDS011;15243;50.726;7.080;2022-09-27T05:12:25;6.63;;;1.20;;
27899;SDS011;15243;50.726;7.080;2022-09-27T05:14:52;3.17;;;1.42;;
27899;SDS011;15243;50.726;7.080;2022-09-27T05:17:19;4.93;;;1.40;;
27899;SDS011;15243;50.726;7.080;2022-09-27T05:19:47;6.18;;;1.30;;
27899;SDS011;15243;50.726;7.080;2022-09-27T05:22:15;8.00;;;1.38;;
27899;SDS011;15243;50.726;7.080;2022-09-27T05:24:42;7.47;;;1.80;;
27899;SDS011;15243;50.726;7.080;2022-09-27T05:27:09;3.83;;;2.03;;
27899;SDS011;15243;50.726;7.080;2022-09-27T05:29:39;3.88;;;1.35;;
27899;SDS011;15243;50.726;7.080;2022-09-27T05:32:07;4.70;;;1.95;;
27899;SDS011;15243;50.726;7.080;2022-09-27T05:34:34;4.35;;;1.85;;
27899;SDS011;15243;50.726;7.080;2022-09-27T05:37:00;5.57;;;2.15;;
27899;SDS011;15243;50.726;7.080;2022-09-27T05:39:27;8.07;;;1.55;;
27899;SDS011;15243;50.726;7.080;2022-09-27T05:41:54;3.78;;;1.52;;
27899;SDS011;15243;50.726;7.080;2022-09-27T05:44:22;3.50;;;1.88;;
27899;SDS011;15243;50.726;7.080;2022-09-27T05:46:51;6.85;;;1.55;;
27899;SDS011;15243;50.726;7.080;2022-09-27T05:49:18;4.75;;;1.58;;
27899;SDS011;15243;50.726;7.080;2022-09-27T05:51:45;3.67;;;1.48;;
27899;SDS011;15243;50.726;7.080;2022-09-27T05:54:12;5.30;;;1.70;;
27899;SDS011;15243;50.726;7.080;2022-09-27T05:56:39;5.82;;;1.58;;
27899;SDS011;15243;50.726;7.080;2022-09-27T05:59:06;6.85;;;1.65;;
27899;SDS011;15243;50.726;7.080;2022-09-27T06:01:33;10.27;;;1.77;;
27899;SDS011;15243;50.726;7.080;2022-09-27T06:04:01;4.68;;;1.55;;
27899;SDS011;15243;50.726;7.080;2022-09-27T06:06:30;5.90;;;1.60;;
27899;SDS011;15243;50.726;7.080;2022-09-27T06:08:59;3.17;;;1.40;;
27899;SDS011;15243;50.726;7.080;2022-09-27T06:11:26;4.97;;;1.60;;
27899;SDS011;15243;50.726;7.080;2022-09-27T06:13:53;4.38;;;1.83;;
27899;SDS011;15243;50.726;7.080;2022-09-27T06:16:23;5.75;;;1.70;;
27899;SDS011;15243;50.726;7.080;2022-09-27T06:18:50;4.03;;;1.58;;
27899;SDS011;15243;50.726;7.080;2022-09-27T06:21:17;7.20;;;2.05;;
27899;SDS011;15243;50.726;7.080;2022-09-27T06:23:44;5.13;;;1.70;;
27899;SDS011;15243;50.726;7.080;2022-09-27T06:26:18;6.50;;;2.33;;
27899;SDS011;15243;50.726;7.080;2022-09-27T06:28:47;4.95;;;2.15;;
27899;SDS011;15243;50.726;7.080;2022-09-27T06:31:16;6.20;;;1.90;;
27899;SDS011;15243;50.726;7.080;2022-09-27T06:33:43;4.75;;;2.40;;
27899;SDS011;15243;50.726;7.080;2022-09-27T06:36:11;3.55;;;1.70;;
27899;SDS011;15243;50.726;7.080;2022-09-27T06:38:38;4.47;;;1.38;;
27899;SDS011;15243;50.726;7.080;2022-09-27T06:41:05;4.75;;;2.00;;
27899;SDS011;15243;50.726;7.080;2022-09-27T06:43:34;5.38;;;2.28;;
27899;SDS011;15243;50.726;7.080;2022-09-27T06:46:02;2.92;;;1.45;;
27899;SDS011;15243;50.726;7.080;2022-09-27T06:48:30;4.03;;;1.38;;
27899;SDS011;15243;50.726;7.080;2022-09-27T06:51:02;3.67;;;1.48;;
27899;SDS011;15243;50.726;7.080;2022-09-27T06:53:29;3.63;;;1.20;;
27899;SDS011;15243;50.726;7.080;2022-09-27T06:55:57;3.53;;;1.45;;
27899;SDS011;15243;50.726;7.080;2022-09-27T06:58:26;4.10;;;1.60;;
27899;SDS011;15243;50.726;7.080;2022-09-27T07:01:12;5.45;;;1.83;;
27899;SDS011;15243;50.726;7.080;2022-09-27T07:03:39;3.33;;;1.23;;
27899;SDS011;15243;50.726;7.080;2022-09-27T07:06:19;6.70;;;1.38;;
27899;SDS011;15243;50.726;7.080;2022-09-27T07:08:49;4.05;;;1.58;;
27899;SDS011;15243;50.726;7.080;2022-09-27T07:11:17;5.97;;;1.35;;
27899;SDS011;15243;50.726;7.080;2022-09-27T07:13:44;2.03;;;1.20;;
27899;SDS011;15243;50.726;7.080;2022-09-27T07:16:12;3.75;;;1.63;;
27899;SDS011;15243;50.726;7.080;2022-09-27T07:18:39;3.45;;;1.02;;
27899;SDS011;15243;50.726;7.080;2022-09-27T07:21:07;4.57;;;0.98;;
27899;SDS011;15243;50.726;7.080;2022-09-27T07:23:35;4.15;;;0.90;;
27899;SDS011;15243;50.726;7.080;2022-09-27T07:26:03;3.47;;;1.20;;
27899;SDS011;15243;50.726;7.080;2022-09-27T07:28:32;4.47;;;1.00;;
27899;SDS011;15243;50.726;7.080;2022-09-27T07:30:59;2.88;;;1.10;;
27899;SDS011;15243;50.726;7.080;2022-09-27T07:33:28;2.88;;;1.08;;
27899;SDS011;15243;50.726;7.080;2022-09-27T07:35:56;3.85;;;0.90;;
27899;SDS011;15243;50.726;7.080;2022-09-27T07:38:23;3.35;;;1.10;;
27899;SDS011;15243;50.726;7.080;2022-09-27T07:40:50;4.30;;;1.05;;
27899;SDS011;15243;50.726;7.080;2022-09-27T07:43:17;3.58;;;1.10;;
27899;SDS011;15243;50.726;7.080;2022-09-27T07:45:44;5.22;;;0.95;;
27899;SDS011;15243;50.726;7.080;2022-09-27T07:48:13;1.40;;;0.70;;
27899;SDS011;15243;50.726;7.080;2022-09-27T07:50:41;4.97;;;1.10;;
27899;SDS011;15243;50.726;7.080;2022-09-27T07:53:08;3.35;;;1.13;;
27899;SDS011;15243;50.726;7.080;2022-09-27T07:55:38;3.15;;;1.00;;
27899;SDS011;15243;50.726;7.080;2022-09-27T07:58:07;5.90;;;1.10;;
27899;SDS011;15243;50.726;7.080;2022-09-27T08:00:35;4.28;;;1.08;;
27899;SDS011;15243;50.726;7.080;2022-09-27T08:03:04;1.38;;;0.68;;
27899;SDS011;15243;50.726;7.080;2022-09-27T08:05:36;4.03;;;1.13;;
27899;SDS011;15243;50.726;7.080;2022-09-27T08:08:03;3.05;;;0.98;;
27899;SDS011;15243;50.726;7.080;2022-09-27T08:10:30;1.92;;;0.90;;
27899;SDS011;15243;50.726;7.080;2022-09-27T08:13:02;2.45;;;0.68;;
27899;SDS011;15243;50.726;7.080;2022-09-27T08:15:30;3.05;;;0.80;;
27899;SDS011;15243;50.726;7.080;2022-09-27T08:17:57;9.35;;;1.35;;
27899;SDS011;15243;50.726;7.080;2022-09-27T08:20:24;3.25;;;0.65;;
27899;SDS011;15243;50.726;7.080;2022-09-27T08:22:51;2.28;;;0.80;;
27899;SDS011;15243;50.726;7.080;2022-09-27T08:25:18;3.67;;;1.05;;
27899;SDS011;15243;50.726;7.080;2022-09-27T08:27:54;3.00;;;0.50;;
27899;SDS011;15243;50.726;7.080;2022-09-27T08:30:22;2.42;;;0.65;;
27899;SDS011;15243;50.726;7.080;2022-09-27T08:32:56;1.58;;;0.60;;
27899;SDS011;15243;50.726;7.080;2022-09-27T08:35:24;3.60;;;0.60;;
27899;SDS011;15243;50.726;7.080;2022-09-27T08:37:53;1.95;;;0.50;;
27899;SDS011;15243;50.726;7.080;2022-09-27T08:40:22;1.17;;;0.40;;
27899;SDS011;15243;50.726;7.080;2022-09-27T08:42:59;1.02;;;0.60;;
27899;SDS011;15243;50.726;7.080;2022-09-27T08:45:38;3.22;;;0.52;;
27899;SDS011;15243;50.726;7.080;2022-09-27T08:48:14;1.73;;;0.70;;
27899;SDS011;15243;50.726;7.080;2022-09-27T08:50:43;1.55;;;0.50;;
27899;SDS011;15243;50.726;7.080;2022-09-27T08:53:22;2.38;;;0.45;;
27899;SDS011;15243;50.726;7.080;2022-09-27T08:55:56;1.35;;;0.47;;
27899;SDS011;15243;50.726;7.080;2022-09-27T09:01:10;2.50;;;0.70;;
27899;SDS011;15243;50.726;7.080;2022-09-27T09:03:44;3.78;;;0.80;;
27899;SDS011;15243;50.726;7.080;2022-09-27T09:06:22;4.05;;;0.70;;
27899;SDS011;15243;50.726;7.080;2022-09-27T09:11:58;1.75;;;0.65;;
27899;SDS011;15243;50.726;7.080;2022-09-27T09:15:15;1.15;;;0.60;;
27899;SDS011;15243;50.726;7.080;2022-09-27T09:29:33;4.07;;;1.40;;
27899;SDS011;15243;50.726;7.080;2022-09-27T09:32:29;3.63;;;1.15;;
27899;SDS011;15243;50.726;7.080;2022-09-27T09:38:00;3.22;;;1.20;;
27899;SDS011;15243;50.726;7.080;2022-09-27T09:40:40;4.80;;;1.38;;
27899;SDS011;15243;50.726;7.080;2022-09-27T09:43:19;3.50;;;1.00;;
27899;SDS011;15243;50.726;7.080;2022-09-27T09:45:54;1.33;;;0.90;;
27899;SDS011;15243;50.726;7.080;2022-09-27T09:48:48;5.15;;;1.20;;
27899;SDS011;15243;50.726;7.080;2022-09-27T09:51:23;3.72;;;1.00;;
27899;SDS011;15243;50.726;7.080;2022-09-27T09:53:58;5.43;;;1.70;;
27899;SDS011;15243;50.726;7.080;2022-09-27T09:59:08;3.40;;;1.10;;
27899;SDS011;15243;50.726;7.080;2022-09-27T10:01:41;1.98;;;1.15;;
27899;SDS011;15243;50.726;7.080;2022-09-27T10:04:11;2.97;;;0.98;;
27899;SDS011;15243;50.726;7.080;2022-09-27T10:06:46;2.60;;;0.80;;
27899;SDS011;15243;50.726;7.080;2022-09-27T10:09:14;3.58;;;0.98;;
27899;SDS011;15243;50.726;7.080;2022-09-27T10:11:43;1.48;;;0.80;;
27899;SDS011;15243;50.726;7.080;2022-09-27T10:14:12;2.60;;;0.60;;
27899;SDS011;15243;50.726;7.080;2022-09-27T10:16:41;3.65;;;1.27;;
27899;SDS011;15243;50.726;7.080;2022-09-27T10:19:14;1.13;;;0.50;;
27899;SDS011;15243;50.726;7.080;2022-09-27T10:21:45;3.03;;;0.75;;
27899;SDS011;15243;50.726;7.080;2022-09-27T10:24:16;2.13;;;0.63;;
27899;SDS011;15243;50.726;7.080;2022-09-27T10:26:45;2.58;;;0.60;;
27899;SDS011;15243;50.726;7.080;2022-09-27T10:29:22;2.47;;;0.80;;
27899;SDS011;15243;50.726;7.080;2022-09-27T10:32:01;2.28;;;0.77;;
27899;SDS011;15243;50.726;7.080;2022-09-27T10:34:34;0.95;;;0.43;;
27899;SDS011;15243;50.726;7.080;2022-09-27T10:39:37;3.00;;;0.75;;
27899;SDS011;15243;50.726;7.080;2022-09-27T10:42:29;2.13;;;0.73;;
27899;SDS011;15243;50.726;7.080;2022-09-27T10:47:52;1.02;;;0.65;;
27899;SDS011;15243;50.726;7.080;2022-09-27T10:50:23;1.73;;;0.65;;
27899;SDS011;15243;50.726;7.080;2022-09-27T10:53:15;2.72;;;0.80;;
27899;SDS011;15243;50.726;7.080;2022-09-27T10:55:46;2.00;;;0.75;;
27899;SDS011;15243;50.726;7.080;2022-09-27T10:58:34;2.05;;;0.70;;
27899;SDS011;15243;50.726;7.080;2022-09-27T11:01:04;0.85;;;0.60;;
27899;SDS011;15243;50.726;7.080;2022-09-27T11:03:37;2.22;;;0.75;;
27899;SDS011;15243;50.726;7.080;2022-09-27T11:09:08;1.50;;;0.90;;
27899;SDS011;15243;50.726;7.080;2022-09-27T11:11:41;2.28;;;0.70;;
27899;SDS011;15243;50.726;7.080;2022-09-27T11:14:16;2.45;;;0.80;;
27899;SDS011;15243;50.726;7.080;2022-09-27T11:16:56;1.35;;;0.73;;
27899;SDS011;15243;50.726;7.080;2022-09-27T11:25:33;1.90;;;0.73;;
27899;SDS011;15243;50.726;7.080;2022-09-27T11:36:33;5.57;;;1.23;;
27899;SDS011;15243;50.726;7.080;2022-09-27T11:39:22;3.17;;;1.10;;
27899;SDS011;15243;50.726;7.080;2022-09-27T11:56:10;1.65;;;1.00;;
27899;SDS011;15243;50.726;7.080;2022-09-27T12:16:55;5.45;;;1.48;;
27899;SDS011;15243;50.726;7.080;2022-09-27T12:19:26;5.45;;;1.25;;
27899;SDS011;15243;50.726;7.080;2022-09-27T12:22:00;1.88;;;1.15;;
27899;SDS011;15243;50.726;7.080;2022-09-27T12:24:30;2.03;;;1.20;;
27899;SDS011;15243;50.726;7.080;2022-09-27T12:27:01;5.15;;;1.42;;
27899;SDS011;15243;50.726;7.080;2022-09-27T12:29:37;2.00;;;1.05;;
27899;SDS011;15243;50.726;7.080;2022-09-27T12:34:50;2.05;;;1.02;;
27899;SDS011;15243;50.726;7.080;2022-09-27T12:37:35;8.65;;;2.67;;
27899;SDS011;15243;50.726;7.080;2022-09-27T12:42:43;2.00;;;1.10;;
27899;SDS011;15243;50.726;7.080;2022-09-27T12:45:14;3.17;;;1.02;;
27899;SDS011;15243;50.726;7.080;2022-09-27T12:48:00;2.58;;;1.10;;
27899;SDS011;15243;50.726;7.080;2022-09-27T12:50:52;2.38;;;1.10;;
27899;SDS011;15243;50.726;7.080;2022-09-27T12:53:30;4.72;;;1.20;;
27899;SDS011;15243;50.726;7.080;2022-09-27T13:09:58;3.20;;;1.10;;
27899;SDS011;15243;50.726;7.080;2022-09-27T13:12:27;4.00;;;1.85;;
27899;SDS011;15243;50.726;7.080;2022-09-27T13:14:59;1.63;;;0.70;;
27899;SDS011;15243;50.726;7.080;2022-09-27T13:17:33;7.00;;;4.18;;
27899;SDS011;15243;50.726;7.080;2022-09-27T13:23:01;2.05;;;1.35;;
27899;SDS011;15243;50.726;7.080;2022-09-27T13:30:55;5.65;;;1.85;;
27899;SDS011;15243;50.726;7.080;2022-09-27T13:33:42;2.10;;;1.25;;
27899;SDS011;15243;50.726;7.080;2022-09-27T13:51:56;2.28;;;1.30;;
27899;SDS011;15243;50.726;7.080;2022-09-27T14:00:33;2.55;;;1.27;;
27899;SDS011;15243;50.726;7.080;2022-09-27T14:05:37;1.88;;;0.90;;
27899;SDS011;15243;50.726;7.080;2022-09-27T14:08:25;1.08;;;0.60;;
27899;SDS011;15243;50.726;7.080;2022-09-27T14:11:09;1.67;;;0.70;;
27899;SDS011;15243;50.726;7.080;2022-09-27T14:13:39;2.08;;;0.90;;
27899;SDS011;15243;50.726;7.080;2022-09-27T14:16:12;3.10;;;1.15;;
27899;SDS011;15243;50.726;7.080;2022-09-27T14:18:47;1.20;;;0.70;;
27899;SDS011;15243;50.726;7.080;2022-09-27T14:21:38;3.53;;;0.77;;
27899;SDS011;15243;50.726;7.080;2022-09-27T14:27:22;6.70;;;1.00;;
27899;SDS011;15243;50.726;7.080;2022-09-27T14:29:52;1.90;;;0.83;;
27899;SDS011;15243;50.726;7.080;2022-09-27T14:32:31;2.53;;;0.73;;
27899;SDS011;15243;50.726;7.080;2022-09-27T14:35:07;1.77;;;0.60;;
27899;SDS011;15243;50.726;7.080;2022-09-27T14:37:54;2.42;;;0.60;;
27899;SDS011;15243;50.726;7.080;2022-09-27T14:40:21;3.22;;;0.60;;
27899;SDS011;15243;50.726;7.080;2022-09-27T14:42:51;1.67;;;0.60;;
27899;SDS011;15243;50.726;7.080;2022-09-27T14:48:03;4.20;;;0.70;;
27899;SDS011;15243;50.726;7.080;2022-09-27T14:50:57;5.85;;;0.73;;
27899;SDS011;15243;50.726;7.080;2022-09-27T14:53:33;4.60;;;1.02;;
27899;SDS011;15243;50.726;7.080;2022-09-27T14:56:02;2.75;;;0.88;;
27899;SDS011;15243;50.726;7.080;2022-09-27T14:58:32;3.35;;;0.52;;
27899;SDS011;15243;50.726;7.080;2022-09-27T15:01:17;5.93;;;1.30;;
27899;SDS011;15243;50.726;7.080;2022-09-27T15:03:46;4.68;;;1.00;;
27899;SDS011;15243;50.726;7.080;2022-09-27T15:06:16;3.10;;;0.80;;
27899;SDS011;15243;50.726;7.080;2022-09-27T15:08:44;3.17;;;0.75;;
27899;SDS011;15243;50.726;7.080;2022-09-27T15:11:15;3.17;;;0.95;;
27899;SDS011;15243;50.726;7.080;2022-09-27T15:13:45;3.15;;;1.20;;
27899;SDS011;15243;50.726;7.080;2022-09-27T15:16:16;3.42;;;1.38;;
27899;SDS011;15243;50.726;7.080;2022-09-27T15:18:47;5.85;;;1.30;;
27899;SDS011;15243;50.726;7.080;2022-09-27T15:24:00;5.65;;;2.30;;
27899;SDS011;15243;50.726;7.080;2022-09-27T15:26:41;6.05;;;1.33;;
27899;SDS011;15243;50.726;7.080;2022-09-27T15:29:17;3.88;;;1.63;;
27899;SDS011;15243;50.726;7.080;2022-09-27T15:31:55;5.88;;;1.70;;
27899;SDS011;15243;50.726;7.080;2022-09-27T15:34:30;7.18;;;1.60;;
27899;SDS011;15243;50.726;7.080;2022-09-27T15:37:00;5.00;;;1.15;;
27899;SDS011;15243;50.726;7.080;2022-09-27T15:49:57;5.53;;;1.00;;
27899;SDS011;15243;50.726;7.080;2022-09-27T15:55:12;2.88;;;0.98;;
27899;SDS011;15243;50.726;7.080;2022-09-27T15:57:39;5.35;;;1.13;;
27899;SDS011;15243;50.726;7.080;2022-09-27T16:00:11;1.98;;;0.90;;
27899;SDS011;15243;50.726;7.080;2022-09-27T16:02:40;2.55;;;1.23;;
27899;SDS011;15243;50.726;7.080;2022-09-27T16:05:06;2.35;;;1.25;;
27899;SDS011;15243;50.726;7.080;2022-09-27T16:07:33;3.60;;;1.30;;
27899;SDS011;15243;50.726;7.080;2022-09-27T16:10:01;6.15;;;1.65;;
27899;SDS011;15243;50.726;7.080;2022-09-27T16:12:30;4.20;;;1.45;;
27899;SDS011;15243;50.726;7.080;2022-09-27T16:14:57;3.17;;;1.45;;
27899;SDS011;15243;50.726;7.080;2022-09-27T16:17:24;2.67;;;1.38;;
27899;SDS011;15243;50.726;7.080;2022-09-27T16:19:51;4.85;;;1.50;;
27899;SDS011;15243;50.726;7.080;2022-09-27T16:22:18;3.00;;;1.23;;
27899;SDS011;15243;50.726;7.080;2022-09-27T16:24:44;3.85;;;1.40;;
27899;SDS011;15243;50.726;7.080;2022-09-27T16:27:24;6.40;;;1.58;;
27899;SDS011;15243;50.726;7.080;2022-09-27T16:29:53;5.20;;;1.83;;
27899;SDS011;15243;50.726;7.080;2022-09-27T16:32:19;6.03;;;1.88;;
27899;SDS011;15243;50.726;7.080;2022-09-27T16:34:46;4.22;;;1.60;;
27899;SDS011;15243;50.726;7.080;2022-09-27T16:37:13;4.15;;;1.58;;
27899;SDS011;15243;50.726;7.080;2022-09-27T16:39:40;3.95;;;1.50;;
27899;SDS011;15243;50.726;7.080;2022-09-27T16:42:07;5.28;;;1.60;;
27899;SDS011;15243;50.726;7.080;2022-09-27T16:44:35;3.97;;;1.45;;
27899;SDS011;15243;50.726;7.080;2022-09-27T16:47:02;6.78;;;2.20;;
27899;SDS011;15243;50.726;7.080;2022-09-27T16:49:29;5.25;;;2.20;;
27899;SDS011;15243;50.726;7.080;2022-09-27T16:52:15;6.47;;;2.33;;
27899;SDS011;15243;50.726;7.080;2022-09-27T16:54:42;4.65;;;1.88;;
27899;SDS011;15243;50.726;7.080;2022-09-27T16:57:08;3.65;;;2.20;;
27899;SDS011;15243;50.726;7.080;2022-09-27T16:59:35;6.68;;;2.25;;
27899;SDS011;15243;50.726;7.080;2022-09-27T17:02:02;3.78;;;2.08;;
27899;SDS011;15243;50.726;7.080;2022-09-27T17:04:30;5.47;;;2.20;;
27899;SDS011;15243;50.726;7.080;2022-09-27T17:06:57;4.70;;;1.90;;
27899;SDS011;15243;50.726;7.080;2022-09-27T17:09:24;4.70;;;1.75;;
27899;SDS011;15243;50.726;7.080;2022-09-27T17:11:51;8.43;;;2.38;;
27899;SDS011;15243;50.726;7.080;2022-09-27T17:14:18;7.30;;;1.80;;
27899;SDS011;15243;50.726;7.080;2022-09-27T17:16:45;5.63;;;1.95;;
27899;SDS011;15243;50.726;7.080;2022-09-27T17:19:13;3.80;;;1.80;;
27899;SDS011;15243;50.726;7.080;2022-09-27T17:21:40;4.63;;;1.77;;
27899;SDS011;15243;50.726;7.080;2022-09-27T17:24:08;6.63;;;2.05;;
27899;SDS011;15243;50.726;7.080;2022-09-27T17:26:36;3.83;;;2.40;;
27899;SDS011;15243;50.726;7.080;2022-09-27T17:29:03;9.18;;;2.33;;
27899;SDS011;15243;50.726;7.080;2022-09-27T17:31:31;5.78;;;2.30;;
27899;SDS011;15243;50.726;7.080;2022-09-27T17:34:00;5.50;;;2.20;;
27899;SDS011;15243;50.726;7.080;2022-09-27T17:36:28;10.45;;;2.63;;
27899;SDS011;15243;50.726;7.080;2022-09-27T17:38:57;7.10;;;2.78;;
27899;SDS011;15243;50.726;7.080;2022-09-27T17:41:25;9.05;;;3.15;;
27899;SDS011;15243;50.726;7.080;2022-09-27T17:43:54;7.32;;;2.95;;
27899;SDS011;15243;50.726;7.080;2022-09-27T17:46:24;6.88;;;2.75;;
27899;SDS011;15243;50.726;7.080;2022-09-27T17:48:59;8.93;;;2.70;;
27899;SDS011;15243;50.726;7.080;2022-09-27T17:51:45;3.35;;;2.00;;
27899;SDS011;15243;50.726;7.080;2022-09-27T17:54:13;6.30;;;2.17;;
27899;SDS011;15243;50.726;7.080;2022-09-27T17:56:42;8.32;;;3.58;;
27899;SDS011;15243;50.726;7.080;2022-09-27T17:59:10;6.93;;;2.95;;
27899;SDS011;15243;50.726;7.080;2022-09-27T18:01:37;5.07;;;2.25;;
27899;SDS011;15243;50.726;7.080;2022-09-27T18:04:06;4.40;;;2.53;;
27899;SDS011;15243;50.726;7.080;2022-09-27T18:06:38;6.63;;;2.47;;
27899;SDS011;15243;50.726;7.080;2022-09-27T18:09:08;6.93;;;1.90;;
27899;SDS011;15243;50.726;7.080;2022-09-27T18:11:36;5.53;;;2.28;;
27899;SDS011;15243;50.726;7.080;2022-09-27T18:14:04;9.57;;;2.63;;
27899;SDS011;15243;50.726;7.080;2022-09-27T18:16:32;4.82;;;2.47;;
27899;SDS011;15243;50.726;7.080;2022-09-27T18:19:02;7.13;;;2.70;;
27899;SDS011;15243;50.726;7.080;2022-09-27T18:21:33;3.80;;;2.42;;
27899;SDS011;15243;50.726;7.080;2022-09-27T18:24:00;3.75;;;2.40;;
27899;SDS011;15243;50.726;7.080;2022-09-27T18:26:31;6.15;;;3.30;;
27899;SDS011;15243;50.726;7.080;2022-09-27T18:31:30;5.82;;;2.92;;
27899;SDS011;15243;50.726;7.080;2022-09-27T18:33:57;6.25;;;2.53;;